Time;durP1;ratioP1;P1;durP2;ratioP2;P2;SDS_P1;SDS_P2;PMS_P1;PMS_P2;Temp;Humidity;BMP_temperature;BMP_pressure;BME280_temperature;BME280_humidity;BME280_pressure;Samples;Min_cycle;Max_cycle;Signal;HPM_P1;HPM_P2
2021/11/07 00:05:06;;;;;;;0.50;0.47;;;;;;;6.50;91.45;98542.03;4942350;29;20122;-51
2021/11/07 00:13:01;;;;;;;0.80;0.32;;;;;;;6.67;89.12;98537.09;4876673;29;20081;-52
2021/11/07 00:15:27;;;;;;;0.60;0.30;;;;;;;6.60;88.95;98545.97;4940122;29;20058;-50
2021/11/07 00:17:55;;;;;;;1.23;0.32;;;;;;;6.60;89.23;98545.97;4936656;29;20032;-51
2021/11/07 00:20:29;;;;;;;1.30;0.40;;;;;;;6.61;88.55;98551.09;4935396;29;20515;-50
2021/11/07 00:23:03;;;;;;;0.63;0.20;;;;;;;6.62;86.81;98541.59;4944697;29;20047;-53
2021/11/07 00:25:49;;;;;;;0.20;0.20;;;;;;;6.65;86.23;98552.66;4930275;29;20044;-51
2021/11/07 00:28:51;;;;;;;0.25;0.20;;;;;;;6.64;85.74;98530.31;4935390;29;20435;-51
2021/11/07 00:36:35;;;;;;;0.20;0.20;;;;;;;6.69;83.15;98568.91;4891931;29;20515;-51
2021/11/07 00:41:44;;;;;;;0.15;0.15;;;;;;;6.76;82.85;98578.94;4943106;29;20043;-50
2021/11/07 00:44:35;;;;;;;1.90;0.30;;;;;;;6.65;84.06;98568.13;4932298;29;20554;-49
2021/11/07 00:47:00;;;;;;;0.30;0.20;;;;;;;6.62;85.12;98570.00;4946183;29;20439;-48
2021/11/07 00:49:39;;;;;;;0.68;0.20;;;;;;;6.59;85.17;98593.38;4941144;29;20039;-51
2021/11/07 00:52:24;;;;;;;0.20;0.20;;;;;;;6.60;85.87;98567.47;4934492;29;20066;-50
2021/11/07 00:57:38;;;;;;;0.25;0.10;;;;;;;6.57;84.79;98584.81;4940283;29;20109;-50
2021/11/07 01:00:27;;;;;;;0.70;0.22;;;;;;;6.66;84.82;98597.41;4943166;29;20031;-50
2021/11/07 01:02:59;;;;;;;0.40;0.30;;;;;;;6.69;84.29;98581.81;4946280;29;20392;-50
2021/11/07 01:05:30;;;;;;;0.30;0.22;;;;;;;6.63;83.02;98598.38;4943255;29;20172;-48
2021/11/07 01:07:56;;;;;;;1.58;0.20;;;;;;;6.53;82.47;98584.09;4938790;29;20067;-47
2021/11/07 01:10:24;;;;;;;0.43;0.30;;;;;;;6.63;82.73;98608.69;4948839;28;20109;-49
2021/11/07 01:12:51;;;;;;;0.55;0.30;;;;;;;6.66;82.69;98599.97;4932994;29;20066;-51
2021/11/07 01:15:17;;;;;;;0.40;0.20;;;;;;;6.63;82.09;98631.94;4947379;29;20048;-50
2021/11/07 01:17:43;;;;;;;0.10;0.10;;;;;;;6.61;81.17;98625.97;4945538;29;20035;-46
2021/11/07 01:20:10;;;;;;;0.20;0.20;;;;;;;6.65;81.29;98616.38;4941312;29;20110;-48
2021/11/07 01:25:06;;;;;;;0.17;0.10;;;;;;;6.55;82.82;98631.34;4914034;29;20457;-48
2021/11/07 01:27:43;;;;;;;0.17;0.13;;;;;;;6.48;84.08;98644.53;4924537;29;20047;-49
2021/11/07 01:30:16;;;;;;;0.10;0.00;;;;;;;6.43;84.48;98643.84;4939260;29;20055;-50
2021/11/07 01:32:47;;;;;;;0.32;0.15;;;;;;;6.36;84.45;98659.53;4928531;29;20046;-47
2021/11/07 01:35:35;;;;;;;0.45;0.13;;;;;;;6.32;84.32;98663.13;4927424;29;20102;-49
2021/11/07 01:40:36;;;;;;;0.17;0.10;;;;;;;6.37;84.15;98657.81;4942958;29;20070;-50
2021/11/07 01:43:02;;;;;;;0.22;0.20;;;;;;;6.30;83.76;98652.00;4937126;29;20523;-52
2021/11/07 01:45:35;;;;;;;0.50;0.20;;;;;;;6.38;83.52;98659.50;4928519;29;20052;-49
2021/11/07 01:48:08;;;;;;;0.95;0.17;;;;;;;6.48;82.66;98678.09;4934356;29;20044;-52
2021/11/07 01:50:39;;;;;;;0.28;0.10;;;;;;;6.44;82.21;98666.19;4933063;29;20106;-49
2021/11/07 01:53:16;;;;;;;0.88;0.20;;;;;;;6.35;81.42;98675.06;4930807;29;20538;-51
2021/11/07 01:55:42;;;;;;;0.30;0.10;;;;;;;6.36;81.71;98682.78;4934674;29;20085;-49
2021/11/07 01:58:08;;;;;;;0.75;0.20;;;;;;;6.39;81.87;98694.72;4933736;29;20448;-49
2021/11/07 02:00:34;;;;;;;0.10;0.10;;;;;;;6.30;82.16;98701.03;4935604;29;20510;-54
2021/11/07 02:03:01;;;;;;;0.10;0.10;;;;;;;6.18;82.58;98698.84;4939507;29;20134;-49
2021/11/07 02:05:27;;;;;;;0.70;0.32;;;;;;;6.25;82.08;98702.09;4932547;29;20562;-53
2021/11/07 02:07:53;;;;;;;0.22;0.20;;;;;;;6.25;81.48;98702.94;4941088;29;20088;-51
2021/11/07 02:10:19;;;;;;;0.20;0.10;;;;;;;6.19;81.70;98704.84;4935766;29;20524;-50
2021/11/07 02:12:46;;;;;;;0.22;0.20;;;;;;;6.28;80.35;98714.91;4932631;29;20466;-51
2021/11/07 02:15:15;;;;;;;0.73;0.20;;;;;;;6.24;79.45;98721.88;4932854;29;20054;-48
2021/11/07 02:17:41;;;;;;;2.35;0.10;;;;;;;6.27;79.11;98724.38;4916223;29;20052;-52
2021/11/07 02:20:11;;;;;;;0.10;0.10;;;;;;;6.38;78.19;98734.34;4926059;29;20031;-53
2021/11/07 02:22:38;;;;;;;0.60;0.38;;;;;;;6.37;78.06;98730.09;4915195;29;20530;-51
2021/11/07 02:25:05;;;;;;;0.17;0.10;;;;;;;6.42;77.86;98732.50;4933422;29;20050;-51
2021/11/07 02:27:31;;;;;;;0.10;0.10;;;;;;;6.35;77.28;98743.03;4934644;29;20043;-55
2021/11/07 02:29:57;;;;;;;0.20;0.10;;;;;;;6.28;77.05;98756.19;4939909;29;20429;-54
2021/11/07 02:32:25;;;;;;;0.20;0.10;;;;;;;6.22;76.94;98746.91;4922389;29;20047;-53
2021/11/07 02:34:52;;;;;;;0.20;0.20;;;;;;;6.19;77.17;98754.72;4914354;29;20058;-47
2021/11/07 02:37:18;;;;;;;0.10;0.10;;;;;;;6.19;77.27;98746.16;4915339;29;20090;-50
2021/11/07 02:39:44;;;;;;;0.52;0.15;;;;;;;6.08;76.65;98750.78;4931070;29;20043;-51
2021/11/07 02:42:11;;;;;;;0.30;0.10;;;;;;;6.14;76.67;98745.44;4932758;29;20043;-51
2021/11/07 02:44:45;;;;;;;0.08;0.08;;;;;;;6.14;76.16;98759.19;4932945;29;20055;-52
2021/11/07 02:47:13;;;;;;;0.20;0.17;;;;;;;6.13;75.58;98775.56;4915139;29;20044;-52
2021/11/07 02:49:40;;;;;;;0.52;0.20;;;;;;;6.11;75.40;98769.63;4933834;29;20071;-53
2021/11/07 02:52:08;;;;;;;0.40;0.20;;;;;;;6.09;74.97;98780.88;4922070;29;20135;-53
2021/11/07 02:54:35;;;;;;;1.00;0.22;;;;;;;6.12;74.69;98775.63;4916345;29;20043;-46
2021/11/07 02:57:02;;;;;;;0.30;0.20;;;;;;;6.00;74.56;98774.28;4932724;29;20091;-49
2021/11/07 02:59:32;;;;;;;0.10;0.10;;;;;;;5.96;75.06;98790.75;4936314;29;20043;-51
2021/11/07 03:01:58;;;;;;;;;;;;;;;5.86;74.69;98810.75;4932838;29;20051;-50
2021/11/07 03:04:26;;;;;;;0.28;0.28;;;;;;;5.79;75.25;98824.72;4938704;29;19910;-47
2021/11/07 03:06:52;;;;;;;0.85;0.10;;;;;;;5.81;74.80;98817.78;4914747;29;20586;-47
2021/11/07 03:09:29;;;;;;;0.65;0.20;;;;;;;5.92;74.90;98825.22;4941124;29;20035;-47
2021/11/07 03:11:56;;;;;;;0.40;0.20;;;;;;;5.98;74.11;98812.16;4941016;29;20554;-49
2021/11/07 03:14:25;;;;;;;0.40;0.20;;;;;;;5.97;74.45;98831.09;4933141;29;20067;-50
2021/11/07 03:16:52;;;;;;;0.20;0.10;;;;;;;6.05;73.98;98838.63;4915226;29;20401;-46
2021/11/07 03:19:20;;;;;;;0.32;0.20;;;;;;;6.08;74.26;98826.47;4943287;29;20039;-48
2021/11/07 03:21:50;;;;;;;0.85;0.20;;;;;;;6.04;73.48;98836.94;4927208;29;20035;-48
2021/11/07 03:24:17;;;;;;;0.03;0.03;;;;;;;5.99;73.76;98828.47;4950469;29;20054;-49
2021/11/07 03:26:43;;;;;;;0.00;0.00;;;;;;;5.87;73.98;98848.59;4939116;29;20043;-49
2021/11/07 03:29:10;;;;;;;0.15;0.10;;;;;;;5.73;74.33;98848.09;4933422;29;20047;-48
2021/11/07 03:36:55;;;;;;;0.10;0.10;;;;;;;5.63;75.54;98869.03;4913128;29;20047;-50
2021/11/07 03:39:23;;;;;;;1.45;0.20;;;;;;;5.57;75.54;98864.88;4934630;29;20063;-51
2021/11/07 03:41:49;;;;;;;0.08;0.00;;;;;;;5.66;74.85;98869.78;4935026;29;20047;-48
2021/11/07 03:44:18;;;;;;;0.45;0.10;;;;;;;5.56;74.99;98860.63;4932385;29;20098;-47
2021/11/07 03:46:46;;;;;;;0.43;0.10;;;;;;;5.51;75.12;98871.06;4933358;29;20071;-48
2021/11/07 03:49:13;;;;;;;0.90;0.13;;;;;;;5.52;75.28;98884.78;4918234;29;20051;-48
2021/11/07 03:51:39;;;;;;;0.10;0.10;;;;;;;5.49;75.37;98896.03;4949173;29;20139;-48
2021/11/07 03:54:06;;;;;;;2.33;0.10;;;;;;;5.48;75.88;98885.75;4938424;29;20836;-49
2021/11/07 03:56:32;;;;;;;0.10;0.10;;;;;;;5.57;76.14;98906.13;4932253;29;20135;-50
2021/11/07 03:58:58;;;;;;;0.70;0.20;;;;;;;5.58;75.48;98900.09;4931611;29;20159;-49
2021/11/07 04:01:25;;;;;;;0.15;0.10;;;;;;;5.54;75.86;98889.03;4929627;29;20107;-51
2021/11/07 04:03:52;;;;;;;0.35;0.15;;;;;;;5.71;75.78;98900.59;4937577;29;20083;-47
2021/11/07 04:06:18;;;;;;;0.30;0.20;;;;;;;5.79;75.25;98915.00;4931328;29;20106;-51
2021/11/07 04:08:45;;;;;;;0.30;0.10;;;;;;;5.87;75.39;98919.97;4931755;29;20071;-49
2021/11/07 04:11:11;;;;;;;0.50;0.30;;;;;;;5.91;75.24;98919.81;4931390;29;20524;-50
2021/11/07 04:13:39;;;;;;;0.38;0.20;;;;;;;5.88;75.06;98927.66;4920104;29;20131;-48
2021/11/07 04:16:09;;;;;;;0.17;0.17;;;;;;;5.81;75.41;98935.59;4931706;29;20047;-49
2021/11/07 04:18:40;;;;;;;0.38;0.20;;;;;;;5.77;76.07;98933.97;4929878;29;20036;-52
2021/11/07 04:21:05;;;;;;;1.20;0.30;;;;;;;5.72;75.63;98936.66;4936196;29;20443;-52
2021/11/07 04:23:31;;;;;;;0.52;0.30;;;;;;;5.57;76.33;98949.97;4931176;29;20139;-50
2021/11/07 04:25:58;;;;;;;0.03;0.03;;;;;;;5.51;76.23;98947.53;4933298;29;20078;-48
2021/11/07 04:28:25;;;;;;;0.38;0.17;;;;;;;5.49;76.13;98955.34;4930803;29;20130;-51
2021/11/07 04:30:51;;;;;;;0.38;0.20;;;;;;;5.37;76.31;98924.72;4914576;29;20138;-49
2021/11/07 04:33:17;;;;;;;0.10;0.08;;;;;;;5.60;75.80;98972.25;4932406;29;20043;-49
2021/11/07 04:35:44;;;;;;;1.13;0.32;;;;;;;5.67;75.31;98969.47;4929532;29;20061;-49
2021/11/07 04:38:09;;;;;;;0.20;0.20;;;;;;;5.76;74.72;98976.97;4926180;29;20565;-48
2021/11/07 04:40:35;;;;;;;1.08;0.10;;;;;;;5.75;74.44;98982.19;4918318;29;20064;-52
2021/11/07 04:43:01;;;;;;;1.38;0.20;;;;;;;5.81;74.40;98982.84;4923640;29;20039;-47
2021/11/07 04:45:27;;;;;;;0.22;0.22;;;;;;;5.74;74.03;98978.75;4931189;29;20043;-49
2021/11/07 04:47:54;;;;;;;0.60;0.25;;;;;;;5.73;74.89;98984.78;4933132;29;20130;-46
2021/11/07 04:50:20;;;;;;;0.22;0.20;;;;;;;5.65;74.71;98975.56;4917493;29;20760;-47
2021/11/07 04:52:46;;;;;;;0.10;0.10;;;;;;;5.53;74.47;98979.28;4920261;29;20055;-49
2021/11/07 04:55:13;;;;;;;0.90;0.40;;;;;;;5.60;74.35;99005.78;4933943;29;20408;-48
2021/11/07 04:57:42;;;;;;;0.10;0.10;;;;;;;5.61;73.67;99007.44;4929345;29;20080;-49
2021/11/07 05:00:10;;;;;;;0.38;0.20;;;;;;;5.67;73.72;99004.72;4909532;29;20039;-49
2021/11/07 05:02:37;;;;;;;0.30;0.20;;;;;;;5.77;72.95;99011.34;4924967;29;20503;-48
2021/11/07 05:05:04;;;;;;;1.20;0.70;;;;;;;5.89;72.77;99018.78;4920459;29;20039;-48
2021/11/07 05:07:30;;;;;;;1.08;0.20;;;;;;;5.91;72.01;99015.28;4916805;29;20035;-52
2021/11/07 05:09:56;;;;;;;0.13;0.10;;;;;;;5.92;71.84;99021.28;4924021;29;20175;-52
2021/11/07 05:12:22;;;;;;;0.45;0.30;;;;;;;5.86;71.70;99013.69;4926164;29;20040;-47
2021/11/07 05:14:48;;;;;;;0.60;0.30;;;;;;;6.11;72.04;99031.97;4917346;29;20501;-47
2021/11/07 05:17:14;;;;;;;3.47;0.30;;;;;;;6.12;68.58;99025.94;4927064;29;20063;-49
2021/11/07 05:19:40;;;;;;;0.50;0.20;;;;;;;6.18;69.17;99036.06;4932489;29;20145;-48
2021/11/07 05:22:07;;;;;;;1.48;0.20;;;;;;;6.19;68.30;99033.44;4931580;29;20397;-53
2021/11/07 05:24:33;;;;;;;1.13;0.20;;;;;;;6.13;68.86;99035.34;4923441;29;20041;-53
2021/11/07 05:26:59;;;;;;;0.20;0.20;;;;;;;6.19;68.97;99041.19;4948046;29;20043;-47
2021/11/07 05:29:25;;;;;;;1.63;0.30;;;;;;;6.23;68.73;99018.72;4937118;29;20058;-50
2021/11/07 05:31:51;;;;;;;0.50;0.28;;;;;;;6.30;68.74;99040.91;4937300;29;20046;-52
2021/11/07 05:34:17;;;;;;;0.20;0.20;;;;;;;6.30;69.14;99043.50;4926981;29;20051;-52
2021/11/07 05:36:44;;;;;;;1.58;0.30;;;;;;;6.30;69.49;99048.66;4939771;29;20044;-46
2021/11/07 05:39:12;;;;;;;1.27;0.30;;;;;;;6.34;69.64;99043.34;4937150;29;20051;-48
2021/11/07 05:41:39;;;;;;;0.50;0.30;;;;;;;6.37;69.90;99045.88;4942267;29;20047;-47
2021/11/07 05:44:05;;;;;;;0.43;0.30;;;;;;;6.50;69.88;99042.94;4915336;29;20567;-51
2021/11/07 05:46:31;;;;;;;1.35;0.50;;;;;;;6.48;69.10;99061.06;4910048;29;20126;-49
2021/11/07 05:48:57;;;;;;;4.05;0.55;;;;;;;6.56;69.11;99055.66;4919941;29;20109;-48
2021/11/07 05:51:23;;;;;;;2.05;0.30;;;;;;;6.62;68.79;99061.53;4933518;29;20051;-50
2021/11/07 05:53:48;;;;;;;0.85;0.32;;;;;;;6.56;69.23;99064.28;4942634;29;20043;-50
2021/11/07 05:56:14;;;;;;;0.40;0.20;;;;;;;6.59;69.14;99071.09;4914962;29;20511;-50
2021/11/07 05:58:40;;;;;;;0.80;0.43;;;;;;;6.51;69.38;99070.44;4934670;29;20074;-52
2021/11/07 06:01:06;;;;;;;2.28;0.40;;;;;;;6.49;69.57;99073.06;4937983;29;20044;-49
2021/11/07 06:03:32;;;;;;;0.80;0.28;;;;;;;6.46;69.44;99086.06;4910827;29;20039;-47
2021/11/07 06:05:58;;;;;;;2.20;0.30;;;;;;;6.39;68.78;99079.38;4937142;29;20043;-49
2021/11/07 06:08:24;;;;;;;0.50;0.30;;;;;;;6.53;68.21;99086.75;4937422;29;20047;-52
2021/11/07 06:10:50;;;;;;;0.40;0.30;;;;;;;6.55;68.18;99092.72;4921722;29;20059;-52
2021/11/07 06:13:16;;;;;;;1.65;0.30;;;;;;;6.58;68.27;99095.22;4931188;29;20043;-50
2021/11/07 06:15:42;;;;;;;0.28;0.20;;;;;;;6.51;67.79;99081.63;4910486;29;20048;-51
2021/11/07 06:18:08;;;;;;;0.15;0.15;;;;;;;6.54;67.71;99098.78;4932897;29;20043;-49
2021/11/07 06:20:34;;;;;;;0.20;0.20;;;;;;;6.58;67.92;99103.81;4934137;29;20512;-52
2021/11/07 06:23:01;;;;;;;0.45;0.30;;;;;;;6.58;68.08;99102.97;4927170;29;20052;-49
2021/11/07 06:25:27;;;;;;;0.32;0.22;;;;;;;6.52;68.04;99110.88;4933488;29;20070;-47
2021/11/07 06:27:54;;;;;;;1.15;0.38;;;;;;;6.55;67.95;99100.47;4933501;29;20078;-50
2021/11/07 06:30:20;;;;;;;1.10;0.75;;;;;;;6.60;67.94;99106.34;4916282;29;20039;-48
2021/11/07 06:32:46;;;;;;;2.33;0.35;;;;;;;6.56;67.47;99095.25;4926468;29;20048;-50
2021/11/07 06:35:13;;;;;;;0.35;0.20;;;;;;;6.60;66.97;99106.34;4931533;29;20051;-50
2021/11/07 06:37:40;;;;;;;0.25;0.20;;;;;;;6.56;67.15;99109.91;4932537;29;20054;-49
2021/11/07 06:40:07;;;;;;;1.00;0.40;;;;;;;6.59;66.73;99099.50;4917155;29;20094;-49
2021/11/07 06:42:34;;;;;;;0.20;0.20;;;;;;;6.75;66.19;99113.69;4933702;29;20455;-50
2021/11/07 06:45:00;;;;;;;1.23;0.70;;;;;;;6.75;66.71;99111.09;4911978;29;20131;-55
2021/11/07 06:47:26;;;;;;;0.70;0.40;;;;;;;6.84;66.79;99113.44;4924044;29;20146;-52
2021/11/07 06:49:53;;;;;;;2.75;0.40;;;;;;;6.95;65.86;99113.13;4930910;29;20110;-50
2021/11/07 06:52:20;;;;;;;0.55;0.25;;;;;;;6.76;65.71;99121.38;4928817;29;20546;-50
2021/11/07 06:54:47;;;;;;;0.95;0.50;;;;;;;6.75;66.81;99119.69;4932037;29;20512;-51
2021/11/07 06:57:13;;;;;;;0.20;0.20;;;;;;;6.75;65.94;99130.00;4931295;29;20099;-56
2021/11/07 06:59:39;;;;;;;0.68;0.20;;;;;;;6.64;65.98;99126.91;4917867;29;20051;-49
2021/11/07 07:02:06;;;;;;;1.23;0.50;;;;;;;6.69;65.82;99119.03;4914540;29;20288;-49
2021/11/07 07:04:32;;;;;;;3.50;0.32;;;;;;;6.66;64.98;99125.09;4913833;29;20468;-51
2021/11/07 07:06:58;;;;;;;1.25;0.45;;;;;;;6.66;65.60;99124.25;4914124;29;20392;-47
2021/11/07 07:09:27;;;;;;;0.47;0.40;;;;;;;6.68;64.95;99131.09;4930957;29;20511;-50
2021/11/07 07:15:06;;;;;;;3.50;0.40;;;;;;;7.12;64.55;99150.50;4896642;29;20771;-52
2021/11/07 07:17:42;;;;;;;0.82;0.60;;;;;;;6.76;62.20;99147.22;4930303;29;20066;-49
2021/11/07 07:20:23;;;;;;;2.58;0.50;;;;;;;6.76;62.80;99143.78;4939117;29;20058;-45
2021/11/07 07:36:04;;;;;;;;;;;;;;;7.77;60.60;99147.66;4936408;29;20534;-47
2021/11/07 07:38:30;;;;;;;0.85;0.40;;;;;;;7.87;59.70;99130.09;4916805;29;19918;-47
2021/11/07 07:40:57;;;;;;;1.00;0.52;;;;;;;8.07;58.93;99145.81;4928724;29;20588;-49
2021/11/07 07:43:23;;;;;;;0.70;0.32;;;;;;;8.13;58.28;99148.22;4924906;29;20086;-48
2021/11/07 07:45:51;;;;;;;1.10;0.30;;;;;;;8.04;57.76;99146.78;4915285;29;21693;-42
2021/11/07 07:48:19;;;;;;;2.42;0.55;;;;;;;8.05;56.87;99145.88;4927450;29;20035;-42
2021/11/07 07:50:45;;;;;;;0.35;0.17;;;;;;;7.88;56.70;99147.31;4929128;29;21071;-43
2021/11/07 07:53:13;;;;;;;2.28;0.20;;;;;;;7.76;57.38;99139.94;4911251;29;20154;-42
2021/11/07 07:55:38;;;;;;;1.70;0.43;;;;;;;7.94;57.01;99149.72;4921357;29;20118;-41
2021/11/07 07:58:04;;;;;;;0.63;0.40;;;;;;;7.92;56.85;99151.50;4927286;29;20140;-43
2021/11/07 08:00:31;;;;;;;0.63;0.45;;;;;;;7.84;56.38;99146.59;4911625;29;20035;-42
2021/11/07 08:02:57;;;;;;;1.77;0.52;;;;;;;7.75;57.00;99151.19;4930373;29;20074;-42
2021/11/07 08:05:23;;;;;;;0.47;0.28;;;;;;;7.91;56.51;99126.50;4928305;29;20063;-42
2021/11/07 08:07:50;;;;;;;2.78;0.40;;;;;;;8.07;55.86;99151.00;4933298;29;20617;-44
2021/11/07 08:10:16;;;;;;;1.30;0.50;;;;;;;8.63;55.49;99146.53;4912854;29;20468;-41
2021/11/07 08:12:41;;;;;;;1.27;0.50;;;;;;;8.66;55.25;99158.53;4907954;29;20055;-41
2021/11/07 08:15:11;;;;;;;0.80;0.52;;;;;;;8.84;54.71;99157.91;4927272;29;20515;-43
2021/11/07 08:17:37;;;;;;;;;;;;;;;8.75;54.37;99166.81;4922000;29;20040;-42
2021/11/07 08:20:07;;;;;;;2.00;0.60;;;;;;;8.60;55.32;99145.78;4926595;29;19957;-41
2021/11/07 08:22:33;;;;;;;;;;;;;;;8.33;54.88;99163.09;4931030;29;20126;-42
2021/11/07 08:24:59;;;;;;;0.38;0.22;;;;;;;8.00;55.42;99170.22;4930587;29;20006;-42
2021/11/07 08:27:25;;;;;;;2.05;0.70;;;;;;;7.85;56.64;99170.72;4934623;29;20047;-42
2021/11/07 08:29:55;;;;;;;1.15;0.68;;;;;;;7.90;56.79;99172.25;4930694;29;20058;-45
2021/11/07 08:32:21;;;;;;;4.22;0.77;;;;;;;7.78;56.89;99158.84;4932248;29;20039;-42
2021/11/07 08:34:47;;;;;;;0.50;0.50;;;;;;;8.07;56.88;99164.78;4923661;29;20110;-43
2021/11/07 08:37:15;;;;;;;2.17;0.50;;;;;;;8.21;56.49;99169.53;4916533;29;20043;-44
2021/11/07 08:39:46;;;;;;;0.73;0.63;;;;;;;8.00;56.91;99162.47;4930436;29;20287;-43
2021/11/07 08:42:30;;;;;;;0.43;0.40;;;;;;;7.85;57.43;99156.00;4901206;29;20082;-43
2021/11/07 09:09:24;;;;;;;0.77;0.50;;;;;;;9.15;53.51;99168.84;4931091;29;20043;-42
2021/11/07 09:11:55;;;;;;;2.05;0.55;;;;;;;8.80;54.79;99153.69;4934127;29;20428;-43
2021/11/07 09:14:30;;;;;;;2.60;0.95;;;;;;;9.04;55.03;99164.94;4915262;29;20130;-41
2021/11/07 09:16:57;;;;;;;0.82;0.55;;;;;;;10.44;51.83;99157.69;4935100;29;20541;-42
2021/11/07 09:19:25;;;;;;;2.05;0.80;;;;;;;11.02;49.56;99159.47;4916525;29;20500;-40
2021/11/07 09:21:57;;;;;;;0.98;0.65;;;;;;;10.79;49.22;99149.22;4884774;29;20069;-43
2021/11/07 09:24:29;;;;;;;3.00;0.80;;;;;;;11.32;48.04;99132.97;4933372;29;20122;-41
2021/11/07 09:26:56;;;;;;;1.17;0.45;;;;;;;11.49;47.91;99133.03;4917835;29;20049;-43
2021/11/07 09:29:30;;;;;;;1.95;0.60;;;;;;;11.21;48.23;99136.06;4917012;29;20050;-41
2021/11/07 09:34:56;;;;;;;1.23;0.68;;;;;;;10.09;50.56;99147.00;4933776;29;20059;-42
2021/11/07 09:37:28;;;;;;;1.63;0.50;;;;;;;9.83;51.42;99136.81;4913397;29;20047;-42
2021/11/07 09:40:00;;;;;;;4.40;1.02;;;;;;;9.82;52.04;99140.31;4931674;29;20530;-42
2021/11/07 09:46:08;;;;;;;0.75;0.47;;;;;;;9.76;52.51;99123.22;4901872;29;20138;-43
2021/11/07 09:48:27;;;;;;;1.40;0.73;;;;;;;9.54;52.20;99127.56;4915515;29;20055;-41
2021/11/07 09:50:54;;;;;;;2.95;0.82;;;;;;;9.34;53.21;99125.75;4934599;29;20075;-42
2021/11/07 09:53:20;;;;;;;1.63;0.60;;;;;;;9.13;53.33;99123.09;4929588;29;20535;-42
2021/11/07 09:55:47;;;;;;;2.67;0.70;;;;;;;9.03;54.40;99127.78;4917133;29;20122;-41
2021/11/07 09:58:14;;;;;;;6.25;0.50;;;;;;;8.77;54.39;99133.09;4932951;29;20050;-45
2021/11/07 10:00:50;;;;;;;1.33;0.50;;;;;;;8.42;54.66;99111.03;4934483;29;20046;-45
2021/11/07 10:03:18;;;;;;;1.33;0.65;;;;;;;8.38;55.63;99124.94;4934705;29;20047;-48
2021/11/07 10:05:48;;;;;;;0.77;0.52;;;;;;;8.29;55.63;99130.41;4915806;29;20051;-43
2021/11/07 10:08:16;;;;;;;1.60;0.80;;;;;;;8.24;56.24;99137.50;4933729;29;20047;-43
2021/11/07 10:10:50;;;;;;;5.40;0.80;;;;;;;8.14;56.75;99142.13;4934453;29;20059;-46
2021/11/07 10:13:26;;;;;;;1.15;0.50;;;;;;;8.15;56.65;99141.25;4933621;29;20043;-45
2021/11/07 10:16:05;;;;;;;1.67;0.70;;;;;;;8.31;56.32;99134.69;4916065;29;20507;-44
2021/11/07 10:19:03;;;;;;;1.45;0.60;;;;;;;8.52;56.29;99132.25;4932344;29;20043;-47
2021/11/07 10:21:38;;;;;;;0.70;0.57;;;;;;;8.37;56.61;99141.41;4917936;29;20054;-46
2021/11/07 10:24:09;;;;;;;3.60;0.70;;;;;;;8.48;56.32;99132.34;4932120;29;20063;-43
2021/11/07 10:26:38;;;;;;;4.10;0.80;;;;;;;9.10;55.60;99126.69;4932934;29;20583;-45
2021/11/07 10:29:06;;;;;;;1.33;0.65;;;;;;;10.43;51.57;99128.25;4911096;29;20052;-46
2021/11/07 10:32:03;;;;;;;2.07;0.70;;;;;;;11.19;49.24;99142.25;4928309;29;20043;-43
2021/11/07 10:43:14;;;;;;;1.50;0.73;;;;;;;11.58;48.77;99136.94;4929523;29;20885;-47
2021/11/07 10:52:06;;;;;;;1.73;0.93;;;;;;;11.33;48.48;99129.44;4931279;29;20130;-48
2021/11/07 10:54:21;;;;;;;1.35;0.63;;;;;;;11.92;47.57;99128.41;4926552;29;20150;-50
2021/11/07 10:57:15;;;;;;;1.08;0.60;;;;;;;11.96;46.89;99107.34;4928771;29;20123;-51
2021/11/07 10:59:42;;;;;;;2.83;1.60;;;;;;;12.87;45.47;99113.09;4930431;29;20039;-50
2021/11/07 11:02:33;;;;;;;1.25;0.80;;;;;;;13.17;44.26;99108.03;4902999;29;20047;-48
2021/11/07 11:05:02;;;;;;;4.30;0.70;;;;;;;13.72;42.46;99120.66;4925720;29;20044;-51
2021/11/07 11:07:29;;;;;;;4.53;1.10;;;;;;;12.87;43.97;99107.88;4912709;29;20051;-47
2021/11/07 11:10:12;;;;;;;1.85;0.73;;;;;;;12.28;44.76;99117.00;4931081;29;20051;-55
2021/11/07 11:13:07;;;;;;;3.33;0.90;;;;;;;12.34;45.18;99112.41;4930881;29;20126;-46
2021/11/07 11:15:40;;;;;;;1.30;1.00;;;;;;;12.97;43.80;99103.03;4923755;29;20094;-50
2021/11/07 11:29:11;;;;;;;1.65;0.90;;;;;;;13.45;42.33;99107.38;4926510;29;20044;-49
2021/11/07 11:31:54;;;;;;;3.63;0.93;;;;;;;13.72;41.64;99094.53;4914726;29;20055;-49
2021/11/07 11:34:25;;;;;;;2.40;0.95;;;;;;;13.86;40.49;99094.59;4923127;29;20054;-47
2021/11/07 11:37:08;;;;;;;1.52;0.98;;;;;;;13.99;40.36;99099.03;4924406;29;20523;-49
2021/11/07 11:39:40;;;;;;;2.33;0.80;;;;;;;13.65;40.94;99088.84;4921720;29;20040;-50
2021/11/07 11:42:12;;;;;;;4.63;1.00;;;;;;;14.03;40.84;99088.41;4925463;29;20046;-50
2021/11/07 11:44:38;;;;;;;4.38;0.90;;;;;;;13.33;41.50;99088.00;4924975;29;20043;-47
2021/11/07 11:47:16;;;;;;;4.88;1.00;;;;;;;12.79;42.87;99091.78;4918765;29;20383;-48
2021/11/07 11:52:34;;;;;;;1.92;0.85;;;;;;;12.86;42.56;99074.88;4919135;29;20069;-47
2021/11/07 12:03:12;;;;;;;4.80;0.60;;;;;;;10.66;47.19;99072.69;4932199;29;20074;-47
2021/11/07 12:05:46;;;;;;;1.23;0.75;;;;;;;10.32;47.67;99067.25;4922271;29;20047;-50
2021/11/07 12:08:14;;;;;;;3.72;0.70;;;;;;;10.22;47.98;99082.41;4912855;29;20072;-51
2021/11/07 12:10:49;;;;;;;5.72;1.00;;;;;;;10.09;48.35;99071.66;4926340;29;20047;-50
2021/11/07 12:13:34;;;;;;;10.82;1.05;;;;;;;9.99;49.40;99062.56;4917241;29;20068;-51
2021/11/07 12:16:08;;;;;;;4.05;0.90;;;;;;;9.76;49.93;99066.13;4925907;29;20046;-52
2021/11/07 12:19:02;;;;;;;1.25;0.63;;;;;;;9.51;50.67;99059.38;4926764;29;20040;-53
2021/11/07 12:21:47;;;;;;;3.28;0.90;;;;;;;9.26;51.54;99051.72;4924527;29;20050;-48
2021/11/07 12:24:14;;;;;;;2.53;0.68;;;;;;;9.19;51.51;99040.75;4924326;29;20092;-48
2021/11/07 12:26:40;;;;;;;7.80;1.30;;;;;;;9.11;52.23;99041.94;4910613;29;20044;-48
2021/11/07 12:29:06;;;;;;;3.67;1.15;;;;;;;9.04;52.30;99037.91;4896650;29;20051;-50
2021/11/07 12:31:32;;;;;;;4.60;1.20;;;;;;;9.04;52.31;99035.31;4926659;29;20439;-51
2021/11/07 12:34:21;;;;;;;4.20;1.17;;;;;;;9.05;52.32;99044.78;4922481;29;20043;-49
2021/11/07 12:42:25;;;;;;;4.00;1.10;;;;;;;8.82;53.49;99028.34;4928310;29;20047;-50
2021/11/07 12:44:52;;;;;;;6.43;1.52;;;;;;;8.78;53.78;99024.19;4929280;29;20082;-50
2021/11/07 12:47:25;;;;;;;1.20;0.68;;;;;;;8.69;54.76;99021.91;4920587;29;20088;-47
2021/11/07 12:49:56;;;;;;;7.18;1.75;;;;;;;8.67;54.38;99017.72;4929375;29;20051;-46
2021/11/07 12:52:22;;;;;;;4.18;1.20;;;;;;;8.71;54.50;99017.53;4913210;29;20098;-46
2021/11/07 12:54:48;;;;;;;7.90;2.30;;;;;;;8.62;54.37;99019.63;4906278;29;20480;-47
2021/11/07 12:57:22;;;;;;;4.38;1.33;;;;;;;8.67;54.64;99023.75;4928485;29;20074;-46
2021/11/07 12:59:50;;;;;;;3.17;1.02;;;;;;;8.67;54.18;99021.16;4935211;29;20047;-50
2021/11/07 13:02:23;;;;;;;4.32;1.38;;;;;;;8.72;54.22;99016.63;4909105;29;20834;-46
2021/11/07 13:04:58;;;;;;;3.72;0.65;;;;;;;8.62;54.30;99011.84;4933742;29;20077;-47
2021/11/07 13:07:55;;;;;;;2.50;1.30;;;;;;;8.51;54.69;99012.25;4916459;29;20043;-45
2021/11/07 13:10:30;;;;;;;9.02;1.17;;;;;;;8.51;55.33;99020.03;4931146;29;20074;-46
2021/11/07 13:13:17;;;;;;;3.20;1.20;;;;;;;8.46;55.56;99021.94;4936405;29;20142;-45
2021/11/07 13:24:41;;;;;;;5.10;1.60;;;;;;;8.20;55.05;99009.03;4936635;29;20044;-50
2021/11/07 13:27:22;;;;;;;5.10;1.40;;;;;;;8.13;55.24;99003.22;4932463;29;20054;-48
2021/11/07 13:29:53;;;;;;;5.18;1.10;;;;;;;8.11;54.91;99005.03;4932715;29;20043;-47
2021/11/07 13:35:01;;;;;;;2.10;0.68;;;;;;;7.89;55.79;99009.28;4913208;29;20508;-48
2021/11/07 13:38:04;;;;;;;1.90;0.90;;;;;;;7.87;55.78;99008.47;4931606;29;20031;-45
2021/11/07 13:40:35;;;;;;;3.30;0.80;;;;;;;7.81;56.25;99000.91;4929547;29;20046;-48
2021/11/07 13:43:04;;;;;;;3.42;0.73;;;;;;;7.78;56.43;99007.03;4928617;29;20047;-43
2021/11/07 13:45:32;;;;;;;3.63;1.00;;;;;;;7.74;56.29;98987.34;4899787;29;20562;-47
2021/11/07 13:48:00;;;;;;;5.82;1.00;;;;;;;7.81;56.61;98995.72;4914818;29;20115;-47
2021/11/07 13:50:32;;;;;;;2.45;0.90;;;;;;;7.82;57.17;98993.09;4930577;29;20571;-44
2021/11/07 13:52:59;;;;;;;2.38;0.80;;;;;;;7.80;57.37;98989.72;4931813;29;20059;-48
2021/11/07 13:55:28;;;;;;;5.03;0.85;;;;;;;7.75;57.76;98983.00;4928818;29;20043;-51
2021/11/07 13:57:55;;;;;;;2.42;1.23;;;;;;;7.73;57.91;98990.84;4914090;29;20150;-45
2021/11/07 14:00:25;;;;;;;3.70;0.77;;;;;;;7.64;58.72;98985.97;4931732;29;20043;-45
2021/11/07 14:02:55;;;;;;;2.35;0.90;;;;;;;7.64;58.93;98984.22;4937195;29;20071;-54
2021/11/07 14:05:21;;;;;;;3.38;0.98;;;;;;;7.64;59.30;98989.38;4933162;29;20111;-49